sensor_id;sensor_type;location;lat;lon;timestamp;P1;durP1;ratioP1;P2;durP2;ratioP2
23866;SDS011;12114;53.404;-1.502;2023-11-21T00:00:40;1.73;;;0.50;;
23866;SDS011;12114;53.404;-1.502;2023-11-21T00:03:24;1.73;;;0.28;;
23866;SDS011;12114;53.404;-1.502;2023-11-21T00:06:08;3.05;;;0.47;;
23866;SDS011;12114;53.404;-1.502;2023-11-21T00:08:52;3.05;;;0.45;;
23866;SDS011;12114;53.404;-1.502;2023-11-21T00:11:36;1.52;;;0.30;;
23866;SDS011;12114;53.404;-1.502;2023-11-21T00:14:21;2.73;;;0.47;;
23866;SDS011;12114;53.404;-1.502;2023-11-21T00:17:05;0.98;;;0.40;;
23866;SDS011;12114;53.404;-1.502;2023-11-21T00:19:50;1.00;;;0.40;;
23866;SDS011;12114;53.404;-1.502;2023-11-21T00:22:35;0.95;;;0.40;;
23866;SDS011;12114;53.404;-1.502;2023-11-21T00:25:19;0.60;;;0.40;;
23866;SDS011;12114;53.404;-1.502;2023-11-21T00:28:03;2.00;;;0.30;;
23866;SDS011;12114;53.404;-1.502;2023-11-21T00:30:47;1.40;;;0.32;;
23866;SDS011;12114;53.404;-1.502;2023-11-21T00:33:31;1.80;;;0.75;;
23866;SDS011;12114;53.404;-1.502;2023-11-21T00:36:15;2.78;;;0.40;;
23866;SDS011;12114;53.404;-1.502;2023-11-21T00:39:00;1.42;;;0.30;;
23866;SDS011;12114;53.404;-1.502;2023-11-21T00:41:47;3.60;;;0.30;;
23866;SDS011;12114;53.404;-1.502;2023-11-21T00:44:32;2.40;;;0.55;;
23866;SDS011;12114;53.404;-1.502;2023-11-21T00:47:17;3.30;;;0.60;;
23866;SDS011;12114;53.404;-1.502;2023-11-21T00:50:05;1.83;;;0.60;;
23866;SDS011;12114;53.404;-1.502;2023-11-21T00:52:52;1.30;;;0.38;;
23866;SDS011;12114;53.404;-1.502;2023-11-21T00:55:39;1.85;;;0.40;;
23866;SDS011;12114;53.404;-1.502;2023-11-21T00:58:24;1.58;;;0.30;;
23866;SDS011;12114;53.404;-1.502;2023-11-21T01:01:09;1.85;;;0.30;;
23866;SDS011;12114;53.404;-1.502;2023-11-21T01:03:53;2.85;;;0.40;;
23866;SDS011;12114;53.404;-1.502;2023-11-21T01:06:37;3.10;;;0.40;;
23866;SDS011;12114;53.404;-1.502;2023-11-21T01:09:31;2.13;;;0.40;;
23866;SDS011;12114;53.404;-1.502;2023-11-21T01:12:14;0.55;;;0.40;;
23866;SDS011;12114;53.404;-1.502;2023-11-21T01:14:59;0.88;;;0.40;;
23866;SDS011;12114;53.404;-1.502;2023-11-21T01:17:44;6.53;;;0.40;;
23866;SDS011;12114;53.404;-1.502;2023-11-21T01:20:28;1.67;;;0.50;;
23866;SDS011;12114;53.404;-1.502;2023-11-21T01:23:12;1.88;;;0.40;;
23866;SDS011;12114;53.404;-1.502;2023-11-21T01:25:57;2.80;;;0.40;;
23866;SDS011;12114;53.404;-1.502;2023-11-21T01:28:41;4.13;;;0.50;;
23866;SDS011;12114;53.404;-1.502;2023-11-21T01:31:26;2.67;;;0.60;;
23866;SDS011;12114;53.404;-1.502;2023-11-21T01:34:12;4.43;;;0.60;;
23866;SDS011;12114;53.404;-1.502;2023-11-21T01:36:57;4.80;;;0.70;;
23866;SDS011;12114;53.404;-1.502;2023-11-21T01:39:41;1.63;;;0.40;;
23866;SDS011;12114;53.404;-1.502;2023-11-21T01:42:25;2.15;;;0.35;;
23866;SDS011;12114;53.404;-1.502;2023-11-21T01:45:09;2.55;;;0.50;;
23866;SDS011;12114;53.404;-1.502;2023-11-21T01:47:56;4.10;;;0.40;;
23866;SDS011;12114;53.404;-1.502;2023-11-21T01:50:40;4.20;;;0.50;;
23866;SDS011;12114;53.404;-1.502;2023-11-21T01:53:25;4.63;;;0.63;;
23866;SDS011;12114;53.404;-1.502;2023-11-21T01:56:10;2.00;;;0.43;;
23866;SDS011;12114;53.404;-1.502;2023-11-21T01:58:54;2.70;;;0.40;;
23866;SDS011;12114;53.404;-1.502;2023-11-21T02:01:38;2.03;;;0.50;;
23866;SDS011;12114;53.404;-1.502;2023-11-21T02:04:22;3.70;;;0.30;;
23866;SDS011;12114;53.404;-1.502;2023-11-21T02:07:06;2.05;;;0.47;;
23866;SDS011;12114;53.404;-1.502;2023-11-21T02:09:50;2.50;;;0.60;;
23866;SDS011;12114;53.404;-1.502;2023-11-21T02:12:35;3.50;;;0.40;;
23866;SDS011;12114;53.404;-1.502;2023-11-21T02:15:19;2.65;;;0.50;;
23866;SDS011;12114;53.404;-1.502;2023-11-21T02:18:07;3.78;;;0.50;;
23866;SDS011;12114;53.404;-1.502;2023-11-21T02:20:53;2.88;;;0.50;;
23866;SDS011;12114;53.404;-1.502;2023-11-21T02:23:37;3.45;;;0.50;;
23866;SDS011;12114;53.404;-1.502;2023-11-21T02:26:25;4.30;;;0.50;;
23866;SDS011;12114;53.404;-1.502;2023-11-21T02:29:09;1.70;;;0.30;;
23866;SDS011;12114;53.404;-1.502;2023-11-21T02:31:55;4.47;;;0.45;;
23866;SDS011;12114;53.404;-1.502;2023-11-21T02:34:39;2.40;;;0.35;;
23866;SDS011;12114;53.404;-1.502;2023-11-21T02:37:24;1.77;;;0.30;;
23866;SDS011;12114;53.404;-1.502;2023-11-21T02:40:09;2.38;;;0.45;;
23866;SDS011;12114;53.404;-1.502;2023-11-21T02:42:56;2.63;;;0.40;;
23866;SDS011;12114;53.404;-1.502;2023-11-21T02:45:42;2.17;;;0.40;;
23866;SDS011;12114;53.404;-1.502;2023-11-21T02:48:27;1.23;;;0.35;;
23866;SDS011;12114;53.404;-1.502;2023-11-21T02:51:11;2.42;;;0.28;;
23866;SDS011;12114;53.404;-1.502;2023-11-21T02:53:55;2.15;;;0.30;;
23866;SDS011;12114;53.404;-1.502;2023-11-21T02:56:42;2.30;;;0.22;;
23866;SDS011;12114;53.404;-1.502;2023-11-21T02:59:26;1.27;;;0.40;;
23866;SDS011;12114;53.404;-1.502;2023-11-21T03:02:10;1.45;;;0.30;;
23866;SDS011;12114;53.404;-1.502;2023-11-21T03:04:54;1.35;;;0.38;;
23866;SDS011;12114;53.404;-1.502;2023-11-21T03:07:41;2.53;;;0.47;;
23866;SDS011;12114;53.404;-1.502;2023-11-21T03:10:25;2.47;;;0.38;;
23866;SDS011;12114;53.404;-1.502;2023-11-21T03:13:09;2.75;;;0.38;;
23866;SDS011;12114;53.404;-1.502;2023-11-21T03:15:54;1.35;;;0.45;;
23866;SDS011;12114;53.404;-1.502;2023-11-21T03:18:39;1.05;;;0.30;;
23866;SDS011;12114;53.404;-1.502;2023-11-21T03:21:23;1.50;;;0.20;;
23866;SDS011;12114;53.404;-1.502;2023-11-21T03:24:10;2.15;;;0.30;;
23866;SDS011;12114;53.404;-1.502;2023-11-21T03:26:55;2.00;;;0.30;;
23866;SDS011;12114;53.404;-1.502;2023-11-21T03:29:40;1.60;;;0.20;;
23866;SDS011;12114;53.404;-1.502;2023-11-21T03:32:24;0.88;;;0.10;;
23866;SDS011;12114;53.404;-1.502;2023-11-21T03:35:08;1.08;;;0.20;;
23866;SDS011;12114;53.404;-1.502;2023-11-21T03:37:52;1.23;;;0.20;;
23866;SDS011;12114;53.404;-1.502;2023-11-21T03:40:36;0.52;;;0.10;;
23866;SDS011;12114;53.404;-1.502;2023-11-21T03:43:20;0.88;;;0.20;;
23866;SDS011;12114;53.404;-1.502;2023-11-21T03:46:04;0.55;;;0.20;;
23866;SDS011;12114;53.404;-1.502;2023-11-21T03:48:49;0.57;;;0.20;;
23866;SDS011;12114;53.404;-1.502;2023-11-21T03:51:33;0.93;;;0.10;;
23866;SDS011;12114;53.404;-1.502;2023-11-21T03:54:17;0.43;;;0.10;;
23866;SDS011;12114;53.404;-1.502;2023-11-21T03:57:02;0.68;;;0.20;;
23866;SDS011;12114;53.404;-1.502;2023-11-21T03:59:47;1.05;;;0.10;;
23866;SDS011;12114;53.404;-1.502;2023-11-21T04:02:31;0.90;;;0.13;;
23866;SDS011;12114;53.404;-1.502;2023-11-21T04:05:15;0.68;;;0.20;;
23866;SDS011;12114;53.404;-1.502;2023-11-21T04:07:59;1.08;;;0.15;;
23866;SDS011;12114;53.404;-1.502;2023-11-21T04:10:43;0.95;;;0.10;;
23866;SDS011;12114;53.404;-1.502;2023-11-21T04:13:28;0.80;;;0.17;;
23866;SDS011;12114;53.404;-1.502;2023-11-21T04:16:12;0.30;;;0.10;;
23866;SDS011;12114;53.404;-1.502;2023-11-21T04:18:56;0.10;;;0.10;;
23866;SDS011;12114;53.404;-1.502;2023-11-21T04:21:41;1.08;;;0.10;;
23866;SDS011;12114;53.404;-1.502;2023-11-21T04:24:26;1.03;;;0.27;;
23866;SDS011;12114;53.404;-1.502;2023-11-21T04:27:10;0.73;;;0.20;;
23866;SDS011;12114;53.404;-1.502;2023-11-21T04:29:54;0.13;;;0.10;;
23866;SDS011;12114;53.404;-1.502;2023-11-21T04:32:38;0.13;;;0.10;;
23866;SDS011;12114;53.404;-1.502;2023-11-21T04:35:22;0.95;;;0.15;;
23866;SDS011;12114;53.404;-1.502;2023-11-21T04:38:06;1.25;;;0.20;;
23866;SDS011;12114;53.404;-1.502;2023-11-21T04:40:50;0.63;;;0.30;;
23866;SDS011;12114;53.404;-1.502;2023-11-21T04:43:34;1.50;;;0.15;;
23866;SDS011;12114;53.404;-1.502;2023-11-21T04:46:18;0.93;;;0.13;;
23866;SDS011;12114;53.404;-1.502;2023-11-21T04:49:05;0.20;;;0.13;;
23866;SDS011;12114;53.404;-1.502;2023-11-21T04:51:49;0.43;;;0.20;;
23866;SDS011;12114;53.404;-1.502;2023-11-21T04:54:33;1.20;;;0.20;;
23866;SDS011;12114;53.404;-1.502;2023-11-21T04:57:17;0.32;;;0.13;;
23866;SDS011;12114;53.404;-1.502;2023-11-21T05:00:01;1.00;;;0.25;;
23866;SDS011;12114;53.404;-1.502;2023-11-21T05:02:49;1.70;;;0.30;;
23866;SDS011;12114;53.404;-1.502;2023-11-21T05:05:33;1.50;;;0.30;;
23866;SDS011;12114;53.404;-1.502;2023-11-21T05:08:17;0.57;;;0.32;;
23866;SDS011;12114;53.404;-1.502;2023-11-21T05:11:02;0.75;;;0.30;;
23866;SDS011;12114;53.404;-1.502;2023-11-21T05:13:46;1.52;;;0.50;;
23866;SDS011;12114;53.404;-1.502;2023-11-21T05:16:30;1.10;;;0.40;;
23866;SDS011;12114;53.404;-1.502;2023-11-21T05:19:15;1.17;;;0.30;;
23866;SDS011;12114;53.404;-1.502;2023-11-21T05:21:59;0.60;;;0.30;;
23866;SDS011;12114;53.404;-1.502;2023-11-21T05:24:44;1.00;;;0.40;;
23866;SDS011;12114;53.404;-1.502;2023-11-21T05:27:28;2.08;;;0.40;;
23866;SDS011;12114;53.404;-1.502;2023-11-21T05:30:13;1.63;;;0.30;;
23866;SDS011;12114;53.404;-1.502;2023-11-21T05:32:57;1.60;;;0.60;;
23866;SDS011;12114;53.404;-1.502;2023-11-21T05:35:41;1.45;;;0.40;;
23866;SDS011;12114;53.404;-1.502;2023-11-21T05:38:25;4.95;;;0.50;;
23866;SDS011;12114;53.404;-1.502;2023-11-21T05:41:13;0.93;;;0.40;;
23866;SDS011;12114;53.404;-1.502;2023-11-21T05:43:57;2.20;;;0.50;;
23866;SDS011;12114;53.404;-1.502;2023-11-21T05:46:41;1.15;;;0.50;;
23866;SDS011;12114;53.404;-1.502;2023-11-21T05:49:27;2.92;;;0.60;;
23866;SDS011;12114;53.404;-1.502;2023-11-21T05:52:11;0.98;;;0.38;;
23866;SDS011;12114;53.404;-1.502;2023-11-21T05:54:55;1.45;;;0.32;;
23866;SDS011;12114;53.404;-1.502;2023-11-21T05:57:39;1.40;;;0.50;;
23866;SDS011;12114;53.404;-1.502;2023-11-21T06:00:25;1.38;;;0.50;;
23866;SDS011;12114;53.404;-1.502;2023-11-21T06:03:11;0.98;;;0.60;;
23866;SDS011;12114;53.404;-1.502;2023-11-21T06:05:55;2.33;;;0.40;;
23866;SDS011;12114;53.404;-1.502;2023-11-21T06:08:39;2.25;;;0.50;;
23866;SDS011;12114;53.404;-1.502;2023-11-21T06:11:23;0.68;;;0.40;;
23866;SDS011;12114;53.404;-1.502;2023-11-21T06:14:08;2.30;;;0.40;;
23866;SDS011;12114;53.404;-1.502;2023-11-21T06:16:53;1.87;;;0.50;;
23866;SDS011;12114;53.404;-1.502;2023-11-21T06:19:37;3.05;;;0.50;;
23866;SDS011;12114;53.404;-1.502;2023-11-21T06:22:21;4.40;;;0.68;;
23866;SDS011;12114;53.404;-1.502;2023-11-21T06:25:05;3.33;;;0.40;;
23866;SDS011;12114;53.404;-1.502;2023-11-21T06:27:51;1.42;;;0.55;;
23866;SDS011;12114;53.404;-1.502;2023-11-21T06:30:37;1.85;;;0.60;;
23866;SDS011;12114;53.404;-1.502;2023-11-21T06:33:21;3.50;;;0.68;;
23866;SDS011;12114;53.404;-1.502;2023-11-21T06:36:05;4.50;;;0.80;;
23866;SDS011;12114;53.404;-1.502;2023-11-21T06:38:50;2.97;;;0.98;;
23866;SDS011;12114;53.404;-1.502;2023-11-21T06:41:34;1.60;;;0.70;;
23866;SDS011;12114;53.404;-1.502;2023-11-21T06:44:18;3.40;;;0.80;;
23866;SDS011;12114;53.404;-1.502;2023-11-21T06:47:03;5.65;;;0.88;;
23866;SDS011;12114;53.404;-1.502;2023-11-21T06:49:48;2.85;;;0.80;;
23866;SDS011;12114;53.404;-1.502;2023-11-21T06:52:35;4.72;;;1.20;;
23866;SDS011;12114;53.404;-1.502;2023-11-21T06:55:19;4.18;;;1.10;;
23866;SDS011;12114;53.404;-1.502;2023-11-21T06:58:04;4.20;;;1.02;;
23866;SDS011;12114;53.404;-1.502;2023-11-21T07:00:49;3.75;;;1.13;;
23866;SDS011;12114;53.404;-1.502;2023-11-21T07:03:33;5.47;;;1.00;;
23866;SDS011;12114;53.404;-1.502;2023-11-21T07:06:18;4.68;;;1.08;;
23866;SDS011;12114;53.404;-1.502;2023-11-21T07:09:02;3.47;;;1.20;;
23866;SDS011;12114;53.404;-1.502;2023-11-21T07:11:47;1.77;;;0.90;;
23866;SDS011;12114;53.404;-1.502;2023-11-21T07:14:32;4.35;;;1.20;;
23866;SDS011;12114;53.404;-1.502;2023-11-21T07:17:16;3.65;;;1.17;;
23866;SDS011;12114;53.404;-1.502;2023-11-21T07:20:01;2.00;;;0.88;;
23866;SDS011;12114;53.404;-1.502;2023-11-21T07:22:46;4.65;;;1.30;;
23866;SDS011;12114;53.404;-1.502;2023-11-21T07:25:30;2.25;;;0.98;;
23866;SDS011;12114;53.404;-1.502;2023-11-21T07:28:17;5.80;;;1.20;;
23866;SDS011;12114;53.404;-1.502;2023-11-21T07:31:01;2.92;;;0.95;;
23866;SDS011;12114;53.404;-1.502;2023-11-21T07:33:47;8.38;;;1.42;;
23866;SDS011;12114;53.404;-1.502;2023-11-21T07:36:31;4.43;;;1.35;;
23866;SDS011;12114;53.404;-1.502;2023-11-21T07:39:15;5.13;;;1.58;;
23866;SDS011;12114;53.404;-1.502;2023-11-21T07:41:59;4.18;;;1.27;;
23866;SDS011;12114;53.404;-1.502;2023-11-21T07:44:43;5.40;;;1.30;;
23866;SDS011;12114;53.404;-1.502;2023-11-21T07:47:30;3.65;;;1.35;;
23866;SDS011;12114;53.404;-1.502;2023-11-21T07:50:14;7.50;;;1.73;;
23866;SDS011;12114;53.404;-1.502;2023-11-21T07:52:58;4.10;;;1.40;;
23866;SDS011;12114;53.404;-1.502;2023-11-21T07:55:49;7.70;;;1.50;;
23866;SDS011;12114;53.404;-1.502;2023-11-21T07:58:33;6.53;;;1.30;;
23866;SDS011;12114;53.404;-1.502;2023-11-21T08:01:17;7.05;;;1.30;;
23866;SDS011;12114;53.404;-1.502;2023-11-21T08:04:01;8.32;;;1.98;;
23866;SDS011;12114;53.404;-1.502;2023-11-21T08:06:47;8.10;;;1.20;;
23866;SDS011;12114;53.404;-1.502;2023-11-21T08:09:31;9.35;;;2.97;;
23866;SDS011;12114;53.404;-1.502;2023-11-21T08:12:15;8.07;;;1.60;;
23866;SDS011;12114;53.404;-1.502;2023-11-21T08:14:59;6.97;;;1.70;;
23866;SDS011;12114;53.404;-1.502;2023-11-21T08:17:44;8.50;;;1.88;;
23866;SDS011;12114;53.404;-1.502;2023-11-21T08:20:28;7.55;;;1.80;;
23866;SDS011;12114;53.404;-1.502;2023-11-21T08:23:15;7.28;;;1.80;;
23866;SDS011;12114;53.404;-1.502;2023-11-21T08:26:04;6.78;;;1.88;;
23866;SDS011;12114;53.404;-1.502;2023-11-21T08:28:52;9.95;;;2.10;;
23866;SDS011;12114;53.404;-1.502;2023-11-21T08:31:43;7.40;;;1.50;;
23866;SDS011;12114;53.404;-1.502;2023-11-21T08:34:30;9.73;;;1.77;;
23866;SDS011;12114;53.404;-1.502;2023-11-21T08:37:14;10.43;;;1.58;;
23866;SDS011;12114;53.404;-1.502;2023-11-21T08:39:59;11.60;;;2.00;;
23866;SDS011;12114;53.404;-1.502;2023-11-21T08:42:43;12.25;;;2.10;;
23866;SDS011;12114;53.404;-1.502;2023-11-21T08:45:30;8.45;;;1.90;;
23866;SDS011;12114;53.404;-1.502;2023-11-21T08:48:14;9.60;;;2.13;;
23866;SDS011;12114;53.404;-1.502;2023-11-21T08:50:59;7.50;;;2.00;;
23866;SDS011;12114;53.404;-1.502;2023-11-21T08:53:43;7.88;;;2.08;;
23866;SDS011;12114;53.404;-1.502;2023-11-21T08:56:28;10.98;;;2.08;;
23866;SDS011;12114;53.404;-1.502;2023-11-21T08:59:13;9.57;;;1.80;;
23866;SDS011;12114;53.404;-1.502;2023-11-21T09:01:58;10.82;;;2.10;;
23866;SDS011;12114;53.404;-1.502;2023-11-21T09:04:44;6.32;;;2.00;;
23866;SDS011;12114;53.404;-1.502;2023-11-21T09:07:29;9.80;;;1.90;;
23866;SDS011;12114;53.404;-1.502;2023-11-21T09:12:58;10.57;;;2.03;;
23866;SDS011;12114;53.404;-1.502;2023-11-21T09:15:43;8.75;;;1.92;;
23866;SDS011;12114;53.404;-1.502;2023-11-21T09:18:30;9.77;;;1.50;;
23866;SDS011;12114;53.404;-1.502;2023-11-21T09:21:15;8.20;;;2.08;;
23866;SDS011;12114;53.404;-1.502;2023-11-21T09:23:59;9.98;;;2.05;;
23866;SDS011;12114;53.404;-1.502;2023-11-21T09:26:43;10.30;;;1.90;;
23866;SDS011;12114;53.404;-1.502;2023-11-21T09:29:27;11.85;;;1.70;;
23866;SDS011;12114;53.404;-1.502;2023-11-21T09:32:11;10.75;;;1.75;;
23866;SDS011;12114;53.404;-1.502;2023-11-21T09:34:58;11.85;;;1.42;;
23866;SDS011;12114;53.404;-1.502;2023-11-21T09:37:42;12.00;;;2.22;;
23866;SDS011;12114;53.404;-1.502;2023-11-21T09:40:28;8.35;;;1.60;;
23866;SDS011;12114;53.404;-1.502;2023-11-21T09:43:18;7.88;;;1.95;;
23866;SDS011;12114;53.404;-1.502;2023-11-21T09:46:02;10.15;;;1.90;;
23866;SDS011;12114;53.404;-1.502;2023-11-21T09:48:54;9.88;;;1.80;;
23866;SDS011;12114;53.404;-1.502;2023-11-21T09:51:42;8.95;;;1.33;;
23866;SDS011;12114;53.404;-1.502;2023-11-21T09:54:27;13.35;;;1.52;;
23866;SDS011;12114;53.404;-1.502;2023-11-21T09:57:12;10.35;;;1.70;;
23866;SDS011;12114;53.404;-1.502;2023-11-21T09:59:57;9.43;;;1.80;;
23866;SDS011;12114;53.404;-1.502;2023-11-21T10:02:48;7.70;;;1.40;;
23866;SDS011;12114;53.404;-1.502;2023-11-21T10:05:33;11.48;;;1.90;;
23866;SDS011;12114;53.404;-1.502;2023-11-21T10:08:18;16.17;;;1.83;;
23866;SDS011;12114;53.404;-1.502;2023-11-21T10:11:07;10.80;;;1.80;;
23866;SDS011;12114;53.404;-1.502;2023-11-21T10:13:55;8.07;;;1.80;;
23866;SDS011;12114;53.404;-1.502;2023-11-21T10:16:43;12.25;;;1.73;;
23866;SDS011;12114;53.404;-1.502;2023-11-21T10:19:30;6.63;;;1.75;;
23866;SDS011;12114;53.404;-1.502;2023-11-21T10:22:16;7.13;;;1.58;;
23866;SDS011;12114;53.404;-1.502;2023-11-21T10:25:01;8.87;;;1.57;;
23866;SDS011;12114;53.404;-1.502;2023-11-21T10:27:46;7.38;;;1.55;;
23866;SDS011;12114;53.404;-1.502;2023-11-21T10:30:34;10.90;;;2.15;;
23866;SDS011;12114;53.404;-1.502;2023-11-21T10:33:30;14.98;;;2.05;;
23866;SDS011;12114;53.404;-1.502;2023-11-21T10:36:14;7.75;;;1.48;;
23866;SDS011;12114;53.404;-1.502;2023-11-21T10:39:19;8.23;;;1.65;;
23866;SDS011;12114;53.404;-1.502;2023-11-21T10:42:04;11.90;;;1.98;;
23866;SDS011;12114;53.404;-1.502;2023-11-21T10:44:48;10.75;;;1.83;;
23866;SDS011;12114;53.404;-1.502;2023-11-21T10:47:32;11.20;;;2.00;;
23866;SDS011;12114;53.404;-1.502;2023-11-21T10:50:16;11.57;;;1.95;;
23866;SDS011;12114;53.404;-1.502;2023-11-21T10:53:02;11.18;;;1.63;;
23866;SDS011;12114;53.404;-1.502;2023-11-21T10:55:47;11.05;;;1.60;;
23866;SDS011;12114;53.404;-1.502;2023-11-21T10:58:32;10.55;;;1.08;;
23866;SDS011;12114;53.404;-1.502;2023-11-21T11:01:17;11.63;;;1.50;;
23866;SDS011;12114;53.404;-1.502;2023-11-21T11:04:02;8.88;;;1.55;;
23866;SDS011;12114;53.404;-1.502;2023-11-21T11:07:03;6.95;;;1.25;;
23866;SDS011;12114;53.404;-1.502;2023-11-21T11:09:49;11.50;;;2.13;;
23866;SDS011;12114;53.404;-1.502;2023-11-21T11:12:33;11.18;;;1.38;;
23866;SDS011;12114;53.404;-1.502;2023-11-21T11:15:19;12.80;;;1.58;;
23866;SDS011;12114;53.404;-1.502;2023-11-21T11:18:06;4.93;;;1.25;;
23866;SDS011;12114;53.404;-1.502;2023-11-21T11:20:52;6.75;;;1.30;;
23866;SDS011;12114;53.404;-1.502;2023-11-21T11:33:14;6.50;;;1.15;;
23866;SDS011;12114;53.404;-1.502;2023-11-21T11:36:21;10.77;;;1.58;;
23866;SDS011;12114;53.404;-1.502;2023-11-21T11:39:56;5.32;;;1.27;;
23866;SDS011;12114;53.404;-1.502;2023-11-21T11:42:20;7.93;;;1.20;;
23866;SDS011;12114;53.404;-1.502;2023-11-21T11:45:17;4.80;;;0.80;;
23866;SDS011;12114;53.404;-1.502;2023-11-21T11:48:03;5.50;;;1.27;;
23866;SDS011;12114;53.404;-1.502;2023-11-21T11:51:05;6.50;;;1.13;;
23866;SDS011;12114;53.404;-1.502;2023-11-21T11:53:58;5.50;;;1.05;;
23866;SDS011;12114;53.404;-1.502;2023-11-21T11:56:45;6.88;;;1.45;;
23866;SDS011;12114;53.404;-1.502;2023-11-21T11:59:31;8.15;;;1.50;;
23866;SDS011;12114;53.404;-1.502;2023-11-21T12:02:59;8.20;;;1.40;;
23866;SDS011;12114;53.404;-1.502;2023-11-21T12:05:49;9.60;;;1.52;;
23866;SDS011;12114;53.404;-1.502;2023-11-21T12:08:36;5.82;;;1.10;;
23866;SDS011;12114;53.404;-1.502;2023-11-21T12:11:20;9.77;;;1.40;;
23866;SDS011;12114;53.404;-1.502;2023-11-21T12:14:04;7.13;;;1.10;;
23866;SDS011;12114;53.404;-1.502;2023-11-21T12:16:50;5.15;;;1.15;;
23866;SDS011;12114;53.404;-1.502;2023-11-21T12:19:35;3.43;;;0.73;;
23866;SDS011;12114;53.404;-1.502;2023-11-21T12:22:19;4.60;;;1.33;;
23866;SDS011;12114;53.404;-1.502;2023-11-21T12:25:04;8.90;;;1.65;;
23866;SDS011;12114;53.404;-1.502;2023-11-21T12:27:49;5.15;;;1.10;;
23866;SDS011;12114;53.404;-1.502;2023-11-21T12:33:21;4.93;;;1.40;;
23866;SDS011;12114;53.404;-1.502;2023-11-21T12:36:06;10.18;;;1.60;;
23866;SDS011;12114;53.404;-1.502;2023-11-21T12:38:54;8.00;;;1.48;;
23866;SDS011;12114;53.404;-1.502;2023-11-21T12:41:38;7.18;;;1.45;;
23866;SDS011;12114;53.404;-1.502;2023-11-21T12:44:23;7.65;;;1.48;;
23866;SDS011;12114;53.404;-1.502;2023-11-21T12:47:10;7.93;;;1.33;;
23866;SDS011;12114;53.404;-1.502;2023-11-21T12:49:57;7.07;;;1.38;;
23866;SDS011;12114;53.404;-1.502;2023-11-21T12:52:45;5.60;;;1.42;;
23866;SDS011;12114;53.404;-1.502;2023-11-21T12:55:33;5.72;;;1.50;;
23866;SDS011;12114;53.404;-1.502;2023-11-21T12:58:21;9.18;;;1.20;;
23866;SDS011;12114;53.404;-1.502;2023-11-21T13:01:08;8.57;;;1.27;;
23866;SDS011;12114;53.404;-1.502;2023-11-21T13:03:56;4.75;;;1.23;;
23866;SDS011;12114;53.404;-1.502;2023-11-21T13:06:42;4.53;;;1.10;;
23866;SDS011;12114;53.404;-1.502;2023-11-21T13:09:26;5.13;;;1.25;;
23866;SDS011;12114;53.404;-1.502;2023-11-21T13:12:11;4.47;;;0.97;;
23866;SDS011;12114;53.404;-1.502;2023-11-21T13:14:56;4.65;;;1.73;;
23866;SDS011;12114;53.404;-1.502;2023-11-21T13:17:40;7.40;;;1.45;;
23866;SDS011;12114;53.404;-1.502;2023-11-21T13:20:24;7.15;;;1.30;;
23866;SDS011;12114;53.404;-1.502;2023-11-21T13:23:09;6.35;;;1.02;;
23866;SDS011;12114;53.404;-1.502;2023-11-21T13:25:59;11.00;;;1.15;;
23866;SDS011;12114;53.404;-1.502;2023-11-21T13:28:47;8.05;;;1.23;;
23866;SDS011;12114;53.404;-1.502;2023-11-21T13:31:32;5.50;;;1.10;;
23866;SDS011;12114;53.404;-1.502;2023-11-21T13:34:18;4.72;;;1.05;;
23866;SDS011;12114;53.404;-1.502;2023-11-21T13:37:06;8.18;;;1.30;;
23866;SDS011;12114;53.404;-1.502;2023-11-21T13:39:51;5.60;;;1.20;;
23866;SDS011;12114;53.404;-1.502;2023-11-21T13:42:36;5.00;;;1.38;;
23866;SDS011;12114;53.404;-1.502;2023-11-21T13:45:21;3.28;;;0.98;;
23866;SDS011;12114;53.404;-1.502;2023-11-21T13:48:06;6.13;;;1.10;;
23866;SDS011;12114;53.404;-1.502;2023-11-21T13:50:54;5.32;;;0.90;;
23866;SDS011;12114;53.404;-1.502;2023-11-21T13:53:54;4.53;;;0.80;;
23866;SDS011;12114;53.404;-1.502;2023-11-21T13:56:38;4.25;;;1.30;;
23866;SDS011;12114;53.404;-1.502;2023-11-21T13:59:24;8.27;;;1.52;;
23866;SDS011;12114;53.404;-1.502;2023-11-21T14:02:14;4.40;;;1.42;;
23866;SDS011;12114;53.404;-1.502;2023-11-21T14:05:01;4.30;;;1.27;;
23866;SDS011;12114;53.404;-1.502;2023-11-21T14:07:52;4.28;;;1.52;;
23866;SDS011;12114;53.404;-1.502;2023-11-21T14:10:36;6.45;;;1.65;;
23866;SDS011;12114;53.404;-1.502;2023-11-21T14:13:23;5.93;;;1.55;;
23866;SDS011;12114;53.404;-1.502;2023-11-21T14:16:08;6.50;;;0.95;;
23866;SDS011;12114;53.404;-1.502;2023-11-21T14:18:55;4.30;;;1.50;;
23866;SDS011;12114;53.404;-1.502;2023-11-21T14:21:45;9.93;;;1.27;;
23866;SDS011;12114;53.404;-1.502;2023-11-21T14:24:30;4.30;;;1.40;;
23866;SDS011;12114;53.404;-1.502;2023-11-21T14:27:15;3.92;;;1.30;;
23866;SDS011;12114;53.404;-1.502;2023-11-21T14:29:59;6.25;;;1.17;;
23866;SDS011;12114;53.404;-1.502;2023-11-21T14:32:43;6.30;;;1.10;;
23866;SDS011;12114;53.404;-1.502;2023-11-21T14:35:27;6.35;;;1.70;;
23866;SDS011;12114;53.404;-1.502;2023-11-21T14:38:16;5.60;;;1.15;;
23866;SDS011;12114;53.404;-1.502;2023-11-21T14:41:00;2.33;;;0.95;;
23866;SDS011;12114;53.404;-1.502;2023-11-21T14:43:44;4.85;;;1.02;;
23866;SDS011;12114;53.404;-1.502;2023-11-21T14:46:30;2.88;;;0.75;;
23866;SDS011;12114;53.404;-1.502;2023-11-21T14:49:18;4.15;;;1.00;;
23866;SDS011;12114;53.404;-1.502;2023-11-21T14:52:07;2.60;;;0.90;;
23866;SDS011;12114;53.404;-1.502;2023-11-21T14:55:13;3.60;;;1.17;;
23866;SDS011;12114;53.404;-1.502;2023-11-21T14:58:15;7.30;;;1.00;;
23866;SDS011;12114;53.404;-1.502;2023-11-21T15:01:09;4.07;;;1.13;;
23866;SDS011;12114;53.404;-1.502;2023-11-21T15:03:58;8.02;;;1.30;;
23866;SDS011;12114;53.404;-1.502;2023-11-21T15:06:37;4.43;;;1.20;;
23866;SDS011;12114;53.404;-1.502;2023-11-21T15:09:24;8.88;;;1.58;;
23866;SDS011;12114;53.404;-1.502;2023-11-21T15:12:17;6.82;;;1.70;;
23866;SDS011;12114;53.404;-1.502;2023-11-21T15:15:04;6.75;;;1.10;;
23866;SDS011;12114;53.404;-1.502;2023-11-21T15:17:50;5.53;;;1.10;;
23866;SDS011;12114;53.404;-1.502;2023-11-21T15:20:35;5.30;;;1.00;;
23866;SDS011;12114;53.404;-1.502;2023-11-21T15:23:19;3.63;;;0.93;;
23866;SDS011;12114;53.404;-1.502;2023-11-21T15:26:03;4.53;;;1.52;;
23866;SDS011;12114;53.404;-1.502;2023-11-21T15:28:48;5.85;;;1.67;;
23866;SDS011;12114;53.404;-1.502;2023-11-21T15:31:32;12.63;;;1.90;;
23866;SDS011;12114;53.404;-1.502;2023-11-21T15:34:17;10.43;;;1.58;;
23866;SDS011;12114;53.404;-1.502;2023-11-21T15:37:07;6.95;;;1.60;;
23866;SDS011;12114;53.404;-1.502;2023-11-21T15:39:54;7.85;;;1.55;;
23866;SDS011;12114;53.404;-1.502;2023-11-21T15:42:39;6.22;;;1.48;;
23866;SDS011;12114;53.404;-1.502;2023-11-21T15:45:23;3.40;;;1.50;;
23866;SDS011;12114;53.404;-1.502;2023-11-21T15:48:09;5.50;;;1.75;;
23866;SDS011;12114;53.404;-1.502;2023-11-21T15:50:54;6.50;;;1.48;;
23866;SDS011;12114;53.404;-1.502;2023-11-21T15:53:41;7.57;;;1.70;;
23866;SDS011;12114;53.404;-1.502;2023-11-21T15:56:25;11.77;;;1.67;;
23866;SDS011;12114;53.404;-1.502;2023-11-21T15:59:09;5.22;;;1.58;;
23866;SDS011;12114;53.404;-1.502;2023-11-21T16:01:54;9.15;;;1.98;;
23866;SDS011;12114;53.404;-1.502;2023-11-21T16:04:41;5.60;;;1.92;;
23866;SDS011;12114;53.404;-1.502;2023-11-21T16:07:26;13.45;;;2.08;;
23866;SDS011;12114;53.404;-1.502;2023-11-21T16:10:11;7.70;;;2.13;;
23866;SDS011;12114;53.404;-1.502;2023-11-21T16:12:55;8.98;;;1.85;;
23866;SDS011;12114;53.404;-1.502;2023-11-21T16:15:43;3.45;;;1.42;;
23866;SDS011;12114;53.404;-1.502;2023-11-21T16:18:27;9.68;;;1.95;;
23866;SDS011;12114;53.404;-1.502;2023-11-21T16:21:11;5.40;;;1.63;;
23866;SDS011;12114;53.404;-1.502;2023-11-21T16:23:56;11.77;;;2.33;;
23866;SDS011;12114;53.404;-1.502;2023-11-21T16:26:44;7.13;;;2.40;;
23866;SDS011;12114;53.404;-1.502;2023-11-21T16:29:31;11.98;;;3.10;;
23866;SDS011;12114;53.404;-1.502;2023-11-21T16:32:16;15.53;;;2.90;;
23866;SDS011;12114;53.404;-1.502;2023-11-21T16:35:02;9.43;;;3.15;;
23866;SDS011;12114;53.404;-1.502;2023-11-21T16:37:52;9.55;;;2.90;;